createdAt,value
2018-09-20T00:07:12.161Z,18.70
2018-09-20T00:09:47.194Z,18.60
2018-09-20T00:29:39.134Z,18.50
2018-09-20T00:32:13.757Z,18.40
2018-09-20T00:34:49.193Z,18.30
2018-09-20T00:37:26.076Z,18.30
2018-09-20T00:40:02.135Z,18.40
2018-09-20T00:59:54.683Z,18.30
2018-09-20T01:02:29.605Z,18.20
2018-09-20T01:25:06.102Z,18.00
2018-09-20T01:27:41.345Z,17.90
2018-09-20T02:00:53.226Z,17.70
2018-09-20T02:03:30.307Z,17.70
2018-09-20T02:37:47.317Z,17.50
2018-09-20T02:40:21.126Z,17.50
2018-09-20T02:42:56.156Z,17.50
2018-09-20T02:45:31.191Z,17.50
2018-09-20T02:48:06.225Z,17.50
2018-09-20T02:50:40.234Z,17.40
2018-09-20T02:53:17.114Z,17.40
2018-09-20T02:55:52.145Z,17.40
2018-09-20T02:58:26.157Z,17.30
2018-09-20T03:01:01.186Z,17.40
2018-09-20T03:03:35.195Z,17.40
2018-09-20T03:06:11.055Z,17.30
2018-09-20T03:08:47.106Z,17.30
2018-09-20T03:11:22.141Z,17.30
2018-09-20T03:13:56.640Z,17.30
2018-09-20T03:16:31.638Z,17.30
2018-09-20T03:19:06.217Z,17.30
2018-09-20T03:21:41.453Z,17.30
2018-09-20T03:24:15.876Z,17.40
2018-09-20T03:26:50.910Z,17.40
2018-09-20T03:29:27.993Z,17.40
2018-09-20T03:32:03.227Z,17.40
2018-09-20T03:34:38.261Z,17.40
2018-09-20T03:37:12.068Z,17.40
2018-09-20T03:39:48.331Z,17.40
2018-09-20T03:42:22.130Z,17.40
2018-09-20T03:44:57.173Z,17.40
2018-09-20T03:47:32.201Z,17.30
2018-09-20T03:50:08.257Z,17.20
2018-09-20T03:52:42.886Z,17.20
2018-09-20T03:55:18.120Z,17.20
2018-09-20T04:06:32.945Z,17.10
2018-09-20T04:26:27.332Z,16.90
2018-09-20T04:29:05.251Z,16.90
2018-09-20T04:31:40.279Z,16.90
2018-09-20T04:34:18.372Z,17.00
2018-09-20T04:36:54.427Z,17.00
2018-09-20T04:56:48.615Z,16.90
2018-09-20T04:59:23.654Z,16.80
2018-09-20T05:21:59.220Z,16.80
2018-09-20T05:38:57.485Z,16.90
2018-09-20T05:41:32.311Z,17.00
2018-09-20T06:01:25.068Z,17.20
2018-09-20T06:04:00.306Z,17.20
2018-09-20T06:06:36.367Z,17.20
2018-09-20T06:58:10.485Z,18.40
2018-09-20T07:20:54.243Z,19.00
2018-09-20T07:23:27.436Z,18.90
2018-09-20T07:28:54.824Z,19.00
2018-09-20T07:48:48.076Z,19.30
2018-09-20T07:51:25.363Z,19.30
2018-09-20T07:54:06.339Z,19.30
2018-09-20T08:19:43.366Z,19.80
2018-09-20T08:22:18.392Z,19.80
2018-09-20T09:14:10.883Z,20.90
2018-09-20T09:16:45.565Z,20.90
2018-09-20T09:19:20.600Z,21.00
2018-09-20T09:21:55.834Z,21.10
2018-09-20T09:41:50.636Z,21.30
2018-09-20T09:44:26.701Z,21.40
2018-09-20T09:47:06.439Z,21.40
2018-09-20T10:06:56.972Z,21.60
2018-09-20T10:09:32.590Z,21.60
2018-09-20T10:29:24.525Z,21.80
2018-09-20T10:31:59.557Z,21.90
2018-09-20T10:34:35.411Z,21.90
2018-09-20T10:54:29.728Z,22.30
2018-09-20T10:57:04.431Z,22.30
2018-09-20T11:14:12.531Z,22.60
2018-09-20T11:17:25.688Z,22.70
2018-09-20T11:20:01.711Z,22.70
2018-09-20T11:22:35.514Z,22.80
2018-09-20T11:25:11.777Z,22.90
2018-09-20T11:27:48.041Z,22.90
2018-09-20T11:30:21.642Z,23.00
2018-09-20T11:32:56.472Z,23.00
2018-09-20T11:55:42.687Z,23.30
2018-09-20T11:58:24.479Z,23.30
2018-09-20T12:00:59.720Z,23.30
2018-09-20T12:03:34.752Z,23.40
2018-09-20T12:06:08.554Z,23.40
2018-09-20T12:08:49.737Z,23.40
2018-09-20T12:11:27.431Z,23.40
2018-09-20T12:14:18.436Z,23.50
2018-09-20T12:16:53.679Z,23.50
2018-09-20T12:19:29.736Z,23.60
2018-09-20T12:22:04.127Z,23.70
2018-09-20T12:24:39.596Z,23.70
2018-09-20T12:27:13.609Z,23.70
2018-09-20T12:29:47.617Z,23.80
2018-09-20T12:32:21.700Z,23.80
2018-09-20T12:34:56.460Z,23.90
2018-09-20T12:37:36.607Z,23.90
2018-09-20T12:40:12.254Z,24.00
2018-09-20T12:42:47.705Z,24.10
2018-09-20T12:45:22.733Z,24.10
2018-09-20T12:47:57.563Z,24.10
2018-09-20T12:50:34.438Z,24.20
2018-09-20T13:04:40.667Z,24.30
2018-09-20T13:07:14.678Z,24.30
2018-09-20T13:12:43.151Z,24.50
2018-09-20T13:15:19.650Z,24.60
2018-09-20T13:17:54.684Z,24.60
2018-09-20T13:20:31.642Z,24.60
2018-09-20T13:40:22.673Z,24.70
2018-09-20T13:42:57.708Z,24.70
2018-09-20T14:02:50.465Z,24.70
2018-09-20T14:05:26.524Z,24.70
2018-09-20T14:08:01.757Z,24.70
2018-09-20T14:27:54.717Z,24.90
2018-09-20T14:30:29.746Z,24.80
2018-09-20T14:33:07.650Z,24.70
2018-09-20T14:35:42.686Z,24.70
2018-09-20T14:38:17.718Z,24.60
2018-09-20T14:40:53.775Z,24.60
2018-09-20T14:43:28.606Z,24.60
2018-09-20T15:03:26.078Z,25.00
2018-09-20T15:06:01.720Z,25.10
2018-09-20T15:28:47.737Z,26.10
2018-09-20T15:31:23.794Z,26.60
2018-09-20T15:33:58.191Z,27.20
2018-09-20T15:36:32.034Z,28.00
2018-09-20T15:39:09.713Z,28.20
2018-09-20T15:59:35.198Z,25.20
2018-09-20T16:22:13.196Z,24.50
2018-09-20T16:24:46.658Z,24.30
2018-09-20T17:01:55.697Z,23.30
2018-09-20T17:04:29.709Z,23.30
2018-09-20T17:27:10.807Z,22.80
2018-09-20T17:29:45.850Z,22.80
2018-09-20T18:09:47.737Z,21.90
2018-09-20T18:29:43.769Z,21.70
2018-09-20T18:32:19.829Z,21.70
2018-09-20T18:34:58.553Z,21.70
2018-09-20T18:37:34.606Z,21.60
2018-09-20T18:40:09.841Z,21.50
2018-09-20T19:00:01.579Z,21.10
2018-09-20T19:02:36.808Z,21.10
2018-09-20T19:05:11.436Z,21.00
2018-09-20T19:33:44.311Z,20.70
2018-09-20T19:36:18.398Z,20.70
2018-09-20T19:38:52.855Z,20.70
2018-09-20T20:01:28.180Z,20.60
2018-09-20T20:04:01.777Z,20.50
2018-09-20T20:23:53.914Z,20.30
2018-09-20T20:26:28.948Z,20.30
2018-09-20T20:49:12.919Z,20.20
2018-09-20T20:51:48.974Z,20.20
2018-09-20T21:03:05.017Z,20.10
2018-09-20T21:22:59.009Z,20.00
2018-09-20T21:25:34.036Z,20.00
2018-09-20T21:28:08.048Z,20.00
2018-09-20T21:30:42.877Z,19.90
2018-09-20T21:33:19.342Z,19.80
2018-09-20T22:01:50.855Z,19.60
2018-09-20T22:47:39.063Z,19.50
2018-09-20T22:50:14.102Z,19.40
2018-09-20T22:52:48.111Z,19.40
2018-09-20T22:55:21.911Z,19.40
2018-09-20T23:18:05.063Z,19.20
2018-09-20T23:20:40.103Z,19.20
2018-09-20T23:23:16.159Z,19.20
2018-09-20T23:25:52.624Z,19.20
2018-09-20T23:45:44.150Z,19.00
2018-09-20T23:48:19.384Z,19.00
2018-09-20T23:50:52.982Z,18.90
2018-09-20T23:53:29.042Z,18.80
2018-09-20T23:56:02.850Z,18.80
